Time;durP1;ratioP1;P1;durP2;ratioP2;P2;SDS_P1;SDS_P2;PMS_P1;PMS_P2;Temp;Humidity;BMP_temperature;BMP_pressure;BME280_temperature;BME280_humidity;BME280_pressure;Samples;Min_cycle;Max_cycle;Signal;HPM_P1;HPM_P2
2022/11/19 00:00:15;;;;;;;18.20;13.07;;;-1.50;99.90;;;;;;5098136;28;20453;-65
2022/11/19 00:02:42;;;;;;;21.70;13.13;;;-1.50;99.90;;;;;;5098506;28;20457;-65
2022/11/19 00:05:09;;;;;;;16.63;12.23;;;-1.50;99.90;;;;;;5096990;28;20496;-66
2022/11/19 00:07:37;;;;;;;16.23;11.27;;;-1.50;99.90;;;;;;5096673;28;20522;-65
2022/11/19 00:10:04;;;;;;;15.27;12.30;;;-1.50;99.90;;;;;;5096378;28;20453;-67
2022/11/19 00:15:16;;;;;;;19.03;11.63;;;-1.40;99.90;;;;;;5096573;28;20436;-65
2022/11/19 00:17:43;;;;;;;16.10;11.20;;;-1.40;99.90;;;;;;5096102;28;20580;-65
2022/11/19 00:20:10;;;;;;;15.10;10.93;;;-1.50;99.90;;;;;;5101035;28;20496;-67
2022/11/19 00:22:40;;;;;;;18.67;11.90;;;-1.50;99.90;;;;;;5104056;28;20489;-67
2022/11/19 00:25:08;;;;;;;18.23;11.80;;;-1.50;99.90;;;;;;5108693;28;20803;-66
2022/11/19 00:27:35;;;;;;;18.03;11.57;;;-1.50;99.90;;;;;;5096205;28;20959;-66
2022/11/19 00:30:02;;;;;;;12.37;10.37;;;-1.60;99.90;;;;;;5096152;28;20544;-65
2022/11/19 00:32:29;;;;;;;13.00;10.40;;;-1.60;99.90;;;;;;5095822;28;20854;-66
2022/11/19 00:34:56;;;;;;;18.33;11.43;;;-1.70;99.90;;;;;;5095494;28;20464;-65
2022/11/19 00:37:23;;;;;;;14.20;9.97;;;-1.70;99.90;;;;;;5095435;28;20499;-66
2022/11/19 00:39:53;;;;;;;12.40;9.73;;;-1.70;99.90;;;;;;5095698;28;20519;-66
2022/11/19 00:42:21;;;;;;;13.00;9.93;;;-1.70;99.90;;;;;;5095514;28;20489;-65
2022/11/19 00:44:48;;;;;;;13.10;10.37;;;-1.80;99.90;;;;;;5096686;28;20546;-65
2022/11/19 00:47:15;;;;;;;14.90;9.57;;;-1.80;99.90;;;;;;5095475;28;20548;-66
2022/11/19 00:49:42;;;;;;;13.63;8.80;;;-1.80;99.90;;;;;;5095725;28;20530;-65
2022/11/19 00:52:09;;;;;;;16.00;9.80;;;-1.80;99.90;;;;;;5096081;28;20488;-66
2022/11/19 00:54:36;;;;;;;13.83;9.40;;;-1.70;99.90;;;;;;5096365;28;20548;-66
2022/11/19 00:57:05;;;;;;;10.50;8.47;;;-1.80;99.90;;;;;;5095257;28;20477;-65
2022/11/19 00:59:32;;;;;;;13.40;9.03;;;-1.80;99.90;;;;;;5095346;28;20530;-66
2022/11/19 01:01:58;;;;;;;11.47;9.00;;;-1.80;99.90;;;;;;5095356;28;20500;-66
2022/11/19 01:04:25;;;;;;;13.17;8.63;;;-1.80;99.90;;;;;;5095250;28;20841;-66
2022/11/19 01:06:52;;;;;;;13.10;9.10;;;-1.80;99.90;;;;;;5095105;28;20485;-66
2022/11/19 01:09:19;;;;;;;13.03;9.67;;;-1.70;99.90;;;;;;5095086;28;20489;-66
2022/11/19 01:11:46;;;;;;;13.70;10.03;;;-1.80;99.90;;;;;;5094874;28;20552;-65
2022/11/19 01:14:15;;;;;;;14.33;10.40;;;-1.80;99.90;;;;;;5094645;28;20462;-67
2022/11/19 01:16:42;;;;;;;12.43;9.70;;;-1.80;99.90;;;;;;5095140;28;20527;-66
2022/11/19 01:19:10;;;;;;;13.77;10.43;;;-1.80;99.90;;;;;;5095151;28;20914;-66
2022/11/19 01:21:37;;;;;;;17.07;10.00;;;-1.80;99.90;;;;;;5094982;28;21009;-65
2022/11/19 01:24:06;;;;;;;16.43;10.87;;;-1.80;99.90;;;;;;5094885;28;20457;-65
2022/11/19 01:26:33;;;;;;;18.00;11.17;;;-1.80;99.90;;;;;;5094610;28;20519;-65
2022/11/19 01:28:59;;;;;;;14.63;11.53;;;-1.80;99.90;;;;;;5094987;28;20568;-66
2022/11/19 01:31:29;;;;;;;14.50;9.93;;;-1.90;99.90;;;;;;5094717;28;20541;-67
2022/11/19 01:33:56;;;;;;;13.60;10.37;;;-1.90;99.90;;;;;;5094972;28;20485;-66
2022/11/19 01:36:25;;;;;;;14.77;10.93;;;-1.90;99.90;;;;;;5094510;28;20544;-65
2022/11/19 01:38:53;;;;;;;13.93;10.10;;;-1.80;99.90;;;;;;5094566;28;20493;-66
2022/11/19 01:41:22;;;;;;;15.97;11.20;;;-1.80;99.90;;;;;;5094644;28;20858;-66
2022/11/19 01:43:50;;;;;;;14.70;10.77;;;-1.80;99.90;;;;;;5094808;28;20856;-66
2022/11/19 01:46:19;;;;;;;18.90;11.97;;;-1.80;99.90;;;;;;5094821;28;20549;-66
2022/11/19 01:48:51;;;;;;;15.43;12.00;;;-1.80;99.90;;;;;;5094867;28;20453;-66
2022/11/19 01:51:23;;;;;;;16.77;11.97;;;-1.90;99.90;;;;;;5094601;28;20437;-66
2022/11/19 01:53:53;;;;;;;17.53;12.33;;;-1.90;99.90;;;;;;5094772;28;20473;-64
2022/11/19 01:56:22;;;;;;;15.13;10.90;;;-2.00;99.90;;;;;;5094587;28;20508;-66
2022/11/19 01:58:52;;;;;;;17.40;13.00;;;-2.00;99.90;;;;;;5094302;28;20493;-65
2022/11/19 02:01:19;;;;;;;14.83;11.70;;;-1.90;99.90;;;;;;5094328;28;20549;-66
2022/11/19 02:03:49;;;;;;;15.40;11.00;;;-2.00;99.90;;;;;;5094218;28;20462;-66
2022/11/19 02:06:16;;;;;;;16.03;11.10;;;-2.00;99.90;;;;;;5094261;28;20461;-65
2022/11/19 02:08:45;;;;;;;16.27;11.10;;;-2.00;99.90;;;;;;5094548;28;20450;-65
2022/11/19 02:11:50;;;;;;;14.87;11.03;;;-2.10;99.90;;;;;;5094500;28;20822;-66
2022/11/19 02:14:50;;;;;;;15.17;10.50;;;-2.10;99.90;;;;;;5094124;28;20551;-66
2022/11/19 02:17:24;;;;;;;11.97;10.00;;;-2.20;99.90;;;;;;5094795;28;20469;-66
2022/11/19 02:20:21;;;;;;;14.23;10.87;;;-2.20;99.90;;;;;;5094250;28;20497;-66
2022/11/19 02:23:08;;;;;;;13.47;9.50;;;-2.20;99.90;;;;;;5094140;28;20953;-66
2022/11/19 02:25:49;;;;;;;15.37;10.50;;;-2.30;99.90;;;;;;5094203;28;20936;-65
2022/11/19 02:28:30;;;;;;;12.30;10.23;;;-2.30;99.90;;;;;;5099694;28;20866;-66
2022/11/19 02:31:06;;;;;;;14.60;10.67;;;-2.40;99.90;;;;;;5100079;28;20535;-66
2022/11/19 02:33:41;;;;;;;15.53;10.77;;;-2.40;99.90;;;;;;5097935;28;20437;-65
2022/11/19 02:36:18;;;;;;;13.40;10.30;;;-2.40;99.90;;;;;;5098419;28;20479;-66
2022/11/19 02:38:50;;;;;;;13.40;9.60;;;-2.40;99.90;;;;;;5098094;28;20867;-66
2022/11/19 02:41:34;;;;;;;17.50;10.90;;;-2.30;99.90;;;;;;5098023;28;20544;-66
2022/11/19 02:46:57;;;;;;;13.17;9.77;;;-2.30;99.90;;;;;;5097996;28;20417;-66
2022/11/19 02:49:28;;;;;;;18.03;11.30;;;-2.20;99.90;;;;;;5097877;28;20484;-67
2022/11/19 02:51:56;;;;;;;16.53;11.27;;;-2.10;99.90;;;;;;5097824;28;20524;-66
2022/11/19 02:54:23;;;;;;;18.50;12.13;;;-2.10;99.90;;;;;;5097724;28;20868;-65
2022/11/19 02:56:52;;;;;;;14.73;10.67;;;-2.10;99.90;;;;;;5097522;28;20541;-66
2022/11/19 03:04:59;;;;;;;12.30;10.17;;;-2.10;99.90;;;;;;5097613;28;20475;-67
2022/11/19 03:07:25;;;;;;;13.70;9.23;;;-2.10;99.90;;;;;;5097367;28;20518;-66
2022/11/19 03:09:56;;;;;;;12.40;8.80;;;-2.10;99.90;;;;;;5097230;28;20465;-65
2022/11/19 03:12:30;;;;;;;15.07;10.20;;;-2.00;99.90;;;;;;5097232;28;20574;-66
2022/11/19 03:18:08;;;;;;;16.17;9.23;;;-2.10;99.90;;;;;;5097974;28;20538;-66
2022/11/19 03:20:40;;;;;;;13.23;9.20;;;-2.10;99.90;;;;;;5098545;28;20499;-66
2022/11/19 03:23:13;;;;;;;11.40;7.60;;;-2.10;99.90;;;;;;5097969;28;20495;-66
2022/11/19 03:25:44;;;;;;;11.27;8.57;;;-2.10;99.90;;;;;;5097368;28;20546;-65
2022/11/19 03:28:16;;;;;;;12.37;8.07;;;-2.10;99.90;;;;;;5097913;28;20437;-66
2022/11/19 03:30:47;;;;;;;18.20;9.60;;;-2.10;99.90;;;;;;5097548;28;20422;-66
2022/11/19 03:33:21;;;;;;;14.30;9.17;;;-2.10;99.90;;;;;;5097681;28;20458;-66
2022/11/19 03:35:53;;;;;;;11.23;8.00;;;-2.10;99.90;;;;;;5097562;28;20950;-65
2022/11/19 03:38:24;;;;;;;13.23;8.57;;;-2.20;99.90;;;;;;5096878;28;20492;-65
2022/11/19 03:40:54;;;;;;;13.10;8.63;;;-2.20;99.90;;;;;;5096958;28;20955;-67
2022/11/19 03:43:25;;;;;;;12.70;8.27;;;-2.10;99.90;;;;;;5098258;28;20457;-66
2022/11/19 03:45:56;;;;;;;15.13;9.90;;;-2.10;99.90;;;;;;5099463;28;20458;-66
2022/11/19 03:48:25;;;;;;;11.27;8.20;;;-2.10;99.90;;;;;;5098197;28;20922;-66
2022/11/19 03:50:56;;;;;;;10.07;8.07;;;-2.00;99.90;;;;;;5098558;28;20462;-65
2022/11/19 03:53:24;;;;;;;11.73;8.90;;;-2.00;99.90;;;;;;5098939;28;20481;-66
2022/11/19 03:55:56;;;;;;;12.50;8.80;;;-2.10;99.90;;;;;;5097532;28;20495;-65
2022/11/19 03:58:24;;;;;;;14.10;9.50;;;-2.10;99.90;;;;;;5099360;28;20529;-65
2022/11/19 04:00:51;;;;;;;9.90;8.27;;;-2.10;99.90;;;;;;5097078;28;20458;-66
2022/11/19 04:03:18;;;;;;;14.40;8.50;;;-2.20;99.90;;;;;;5097148;28;20840;-66
2022/11/19 04:05:47;;;;;;;10.17;7.90;;;-2.20;99.90;;;;;;5096596;28;20534;-66
2022/11/19 04:08:14;;;;;;;9.70;8.30;;;-2.20;99.90;;;;;;5099722;28;20453;-65
2022/11/19 04:10:41;;;;;;;13.67;9.00;;;-2.20;99.90;;;;;;5096557;28;20530;-65
2022/11/19 04:13:08;;;;;;;10.10;8.40;;;-2.10;99.90;;;;;;5096302;28;20485;-66
2022/11/19 04:15:35;;;;;;;11.43;8.03;;;-2.20;99.90;;;;;;5096185;28;20514;-67
2022/11/19 04:18:01;;;;;;;12.63;8.57;;;-2.20;99.90;;;;;;5095859;28;20516;-65
2022/11/19 04:20:28;;;;;;;13.23;9.53;;;-2.10;99.90;;;;;;5096483;28;20453;-67
2022/11/19 04:22:57;;;;;;;14.53;8.50;;;-2.20;99.90;;;;;;5096022;28;20485;-66
2022/11/19 04:25:24;;;;;;;11.97;8.57;;;-2.20;99.90;;;;;;5096066;28;20517;-67
2022/11/19 04:27:51;;;;;;;13.10;9.10;;;-2.10;99.90;;;;;;5095628;28;20540;-66
2022/11/19 04:30:18;;;;;;;12.20;8.60;;;-2.10;99.90;;;;;;5095604;28;20544;-66
2022/11/19 04:32:45;;;;;;;13.00;8.87;;;-2.10;99.90;;;;;;5095547;28;20544;-67
2022/11/19 04:35:12;;;;;;;12.43;9.30;;;-2.10;99.90;;;;;;5095737;28;20457;-66
2022/11/19 04:37:40;;;;;;;13.73;9.37;;;-2.00;99.90;;;;;;5095271;28;20481;-66
2022/11/19 04:40:09;;;;;;;14.40;10.07;;;-1.90;99.90;;;;;;5095723;28;20481;-67
2022/11/19 04:42:36;;;;;;;14.80;9.67;;;-1.90;99.90;;;;;;5095351;28;20544;-66
2022/11/19 04:45:03;;;;;;;14.33;9.77;;;-2.00;99.90;;;;;;5095436;28;20994;-66
2022/11/19 04:47:30;;;;;;;15.80;9.60;;;-2.00;99.90;;;;;;5095703;28;20528;-67
2022/11/19 04:49:57;;;;;;;14.17;10.30;;;-2.10;99.90;;;;;;5094857;28;20801;-67
2022/11/19 04:52:24;;;;;;;12.33;9.90;;;-2.10;99.90;;;;;;5095269;28;20489;-66
2022/11/19 04:54:51;;;;;;;15.00;9.17;;;-2.10;99.90;;;;;;5095404;28;20549;-65
2022/11/19 04:57:20;;;;;;;14.57;11.17;;;-2.10;99.90;;;;;;5095028;28;20540;-66
2022/11/19 04:59:46;;;;;;;13.67;9.47;;;-2.10;99.90;;;;;;5095429;28;20488;-66
2022/11/19 05:02:13;;;;;;;12.17;8.60;;;-2.20;99.90;;;;;;5095327;28;20549;-66
2022/11/19 05:04:40;;;;;;;15.53;10.00;;;-2.20;99.90;;;;;;5095051;28;20464;-67
2022/11/19 05:07:07;;;;;;;12.20;8.57;;;-2.20;99.90;;;;;;5095225;28;20848;-67
2022/11/19 05:09:34;;;;;;;11.80;8.87;;;-2.20;99.90;;;;;;5094876;28;20940;-66
2022/11/19 05:12:01;;;;;;;11.53;8.77;;;-2.20;99.90;;;;;;5094980;28;20518;-66
2022/11/19 05:14:29;;;;;;;11.93;8.67;;;-2.20;99.90;;;;;;5095399;28;20894;-66
2022/11/19 05:16:56;;;;;;;10.97;8.17;;;-2.20;99.90;;;;;;5094895;28;20909;-67
2022/11/19 05:19:23;;;;;;;11.70;8.63;;;-2.10;99.90;;;;;;5095171;28;20512;-66
2022/11/19 05:21:50;;;;;;;12.07;8.60;;;-2.10;99.90;;;;;;5095478;28;20461;-66
2022/11/19 05:24:17;;;;;;;13.83;9.40;;;-2.10;99.90;;;;;;5096879;28;20527;-67
2022/11/19 05:26:44;;;;;;;10.53;8.10;;;-2.10;99.90;;;;;;5096046;28;20571;-66
2022/11/19 05:29:11;;;;;;;14.37;9.30;;;-2.00;99.90;;;;;;5094603;28;20491;-66
2022/11/19 05:31:39;;;;;;;11.03;8.50;;;-2.00;99.90;;;;;;5094678;28;20526;-67
2022/11/19 05:34:06;;;;;;;11.30;8.80;;;-2.00;99.90;;;;;;5094994;28;20552;-65
2022/11/19 05:36:33;;;;;;;10.00;7.30;;;-2.00;99.90;;;;;;5094636;28;20457;-66
2022/11/19 05:39:00;;;;;;;11.07;8.10;;;-1.90;99.90;;;;;;5094417;28;21028;-65
2022/11/19 05:41:27;;;;;;;10.50;8.60;;;-1.90;99.90;;;;;;5094443;28;20489;-66
2022/11/19 05:43:54;;;;;;;12.50;8.20;;;-1.80;99.90;;;;;;5094746;28;20465;-65
2022/11/19 05:46:21;;;;;;;10.87;7.97;;;-1.80;99.90;;;;;;5095221;28;20454;-67
2022/11/19 05:48:49;;;;;;;10.67;7.83;;;-1.80;99.90;;;;;;5095620;28;20450;-66
2022/11/19 05:51:16;;;;;;;11.47;8.23;;;-1.80;99.90;;;;;;5094776;28;20449;-66
2022/11/19 05:53:44;;;;;;;14.63;8.27;;;-1.80;99.90;;;;;;5094717;28;20808;-66
2022/11/19 05:56:11;;;;;;;12.60;8.90;;;-1.80;99.90;;;;;;5094328;28;20548;-67
2022/11/19 05:58:38;;;;;;;10.83;8.33;;;-1.80;99.90;;;;;;5094511;28;20560;-66
2022/11/19 06:01:05;;;;;;;13.73;9.50;;;-1.80;99.90;;;;;;5095995;28;20766;-67
2022/11/19 06:03:32;;;;;;;10.23;7.80;;;-1.80;99.90;;;;;;5098740;28;20453;-66
2022/11/19 06:06:00;;;;;;;10.53;7.90;;;-1.80;99.90;;;;;;5098566;28;20493;-66
2022/11/19 06:08:28;;;;;;;10.10;7.30;;;-1.90;99.90;;;;;;5099099;28;20874;-65
2022/11/19 06:10:54;;;;;;;11.47;7.47;;;-1.80;99.90;;;;;;5098646;28;20735;-66
2022/11/19 06:13:21;;;;;;;10.70;7.80;;;-1.80;99.90;;;;;;5098484;28;20561;-66
2022/11/19 06:15:49;;;;;;;10.43;7.20;;;-1.80;99.90;;;;;;5098681;28;20457;-67
2022/11/19 06:18:15;;;;;;;10.33;7.67;;;-1.90;99.90;;;;;;5098153;28;20583;-67
2022/11/19 06:20:42;;;;;;;9.60;7.97;;;-1.90;99.90;;;;;;5098344;28;20494;-66
2022/11/19 06:23:11;;;;;;;10.03;7.60;;;-1.90;99.90;;;;;;5098566;28;20496;-66
2022/11/19 06:25:38;;;;;;;9.87;8.20;;;-1.90;99.90;;;;;;5098041;28;21027;-67
2022/11/19 06:28:05;;;;;;;10.07;7.70;;;-1.90;99.90;;;;;;5098122;28;20453;-68
2022/11/19 06:30:32;;;;;;;9.20;7.67;;;-1.90;99.90;;;;;;5098319;28;20453;-66
2022/11/19 06:32:58;;;;;;;10.03;7.60;;;-1.90;99.90;;;;;;5098245;28;20518;-67
2022/11/19 06:35:25;;;;;;;11.77;7.73;;;-1.90;99.90;;;;;;5097839;28;20457;-66
2022/11/19 06:37:52;;;;;;;12.17;7.60;;;-2.00;99.90;;;;;;5098174;28;20453;-65
2022/11/19 06:40:21;;;;;;;10.63;7.37;;;-2.00;99.90;;;;;;5097965;28;20488;-66
2022/11/19 06:42:48;;;;;;;14.67;8.47;;;-2.00;99.90;;;;;;5098195;28;20784;-66
2022/11/19 06:45:15;;;;;;;14.13;8.47;;;-2.00;99.90;;;;;;5097974;28;20548;-66
2022/11/19 06:47:42;;;;;;;9.90;7.60;;;-2.10;99.90;;;;;;5097645;28;20553;-66
2022/11/19 06:50:10;;;;;;;9.57;7.07;;;-2.10;99.90;;;;;;5097894;28;20473;-67
2022/11/19 06:52:38;;;;;;;9.50;7.97;;;-2.10;99.90;;;;;;5097598;28;20453;-67
2022/11/19 06:55:05;;;;;;;11.67;7.43;;;-2.10;99.90;;;;;;5097971;28;20544;-66
2022/11/19 06:57:34;;;;;;;10.27;7.40;;;-2.20;99.90;;;;;;5097507;28;20517;-66
2022/11/19 07:00:01;;;;;;;10.17;7.77;;;-2.20;99.90;;;;;;5097701;28;20485;-66
2022/11/19 07:02:28;;;;;;;10.80;7.13;;;-2.20;99.90;;;;;;5097418;28;20457;-66
2022/11/19 07:04:55;;;;;;;9.33;7.03;;;-2.20;99.90;;;;;;5097462;28;20500;-66
2022/11/19 07:07:22;;;;;;;12.40;8.33;;;-2.20;99.90;;;;;;5097878;28;20750;-67
2022/11/19 07:09:49;;;;;;;11.60;7.77;;;-2.20;99.90;;;;;;5098022;28;20457;-67
2022/11/19 07:12:15;;;;;;;8.77;6.70;;;-2.10;99.90;;;;;;5096809;28;20817;-66
2022/11/19 07:14:44;;;;;;;8.47;7.07;;;-2.10;99.90;;;;;;5098094;28;20544;-66
2022/11/19 07:17:11;;;;;;;11.10;7.40;;;-2.10;99.90;;;;;;5097576;28;20485;-66
2022/11/19 07:19:38;;;;;;;14.93;8.80;;;-2.10;99.90;;;;;;5097683;28;20505;-66
2022/11/19 07:22:04;;;;;;;14.17;8.90;;;-2.10;99.90;;;;;;5097668;28;20510;-66
2022/11/19 07:24:31;;;;;;;10.70;8.10;;;-2.10;99.90;;;;;;5097426;28;20952;-66
2022/11/19 07:26:58;;;;;;;12.37;8.60;;;-2.10;99.90;;;;;;5097420;28;20513;-66
2022/11/19 07:29:25;;;;;;;10.83;7.03;;;-2.10;99.90;;;;;;5097411;28;20545;-65
2022/11/19 07:31:54;;;;;;;10.70;7.07;;;-2.10;99.90;;;;;;5097214;28;20540;-66
2022/11/19 07:34:21;;;;;;;9.83;7.50;;;-2.00;99.90;;;;;;5097188;28;20786;-66
2022/11/19 07:36:48;;;;;;;9.60;7.63;;;-1.90;99.90;;;;;;5096958;28;20489;-66
2022/11/19 07:39:16;;;;;;;9.00;7.00;;;-1.80;99.90;;;;;;5097406;28;20564;-66
2022/11/19 07:44:27;;;;;;;7.93;6.67;;;-1.60;99.90;;;;;;5096691;28;20456;-67
2022/11/19 07:46:56;;;;;;;12.20;7.87;;;-1.50;99.90;;;;;;5096656;28;20838;-66
2022/11/19 07:49:23;;;;;;;10.37;6.77;;;-1.50;99.90;;;;;;5096671;28;20485;-66
2022/11/19 07:51:50;;;;;;;10.27;6.30;;;-1.40;99.90;;;;;;5096397;28;20522;-66
2022/11/19 07:54:17;;;;;;;8.93;6.37;;;-1.40;99.90;;;;;;5096817;28;20540;-67
2022/11/19 07:56:45;;;;;;;9.30;7.03;;;-1.30;99.90;;;;;;5096765;28;20453;-67
2022/11/19 07:59:13;;;;;;;10.40;6.87;;;-1.30;99.90;;;;;;5096558;28;20503;-65
2022/11/19 08:01:40;;;;;;;9.33;7.73;;;-1.30;99.90;;;;;;5096654;28;20532;-66
2022/11/19 08:04:09;;;;;;;10.50;7.40;;;-1.30;99.90;;;;;;5096437;28;20465;-65
2022/11/19 08:06:36;;;;;;;12.40;7.97;;;-1.30;99.90;;;;;;5096765;28;20543;-67
2022/11/19 08:09:04;;;;;;;12.80;8.23;;;-1.20;99.90;;;;;;5096366;28;20453;-66
2022/11/19 08:11:31;;;;;;;10.53;7.13;;;-1.10;99.90;;;;;;5096118;28;20469;-66
2022/11/19 08:13:59;;;;;;;10.27;7.13;;;-1.10;99.90;;;;;;5096422;28;20518;-65
2022/11/19 08:19:15;;;;;;;14.50;6.80;;;-1.00;99.90;;;;;;5097202;28;20469;-65
2022/11/19 08:21:44;;;;;;;10.93;7.07;;;-1.00;99.90;;;;;;5097030;28;20495;-66
2022/11/19 08:24:11;;;;;;;10.20;6.73;;;-0.90;99.90;;;;;;5095819;28;20450;-66
2022/11/19 08:26:39;;;;;;;8.63;6.80;;;-0.90;99.90;;;;;;5095906;28;20485;-66
2022/11/19 08:29:07;;;;;;;9.43;6.53;;;-0.80;99.90;;;;;;5095972;28;20460;-66
2022/11/19 08:31:33;;;;;;;9.93;7.27;;;-0.80;99.90;;;;;;5095915;28;20457;-67
2022/11/19 08:34:02;;;;;;;9.73;7.10;;;-0.60;99.90;;;;;;5096532;28;20452;-65
2022/11/19 08:36:31;;;;;;;11.03;7.03;;;-0.60;99.90;;;;;;5096699;28;20843;-65
2022/11/19 08:38:59;;;;;;;10.40;7.17;;;-0.50;99.90;;;;;;5097190;28;20477;-66
2022/11/19 08:44:11;;;;;;;10.20;6.73;;;-0.40;99.90;;;;;;5096881;28;20425;-67
2022/11/19 08:46:38;;;;;;;8.20;5.93;;;-0.30;99.90;;;;;;5096678;28;20902;-66
2022/11/19 08:49:09;;;;;;;10.53;6.73;;;-0.20;99.90;;;;;;5095825;28;20507;-65
2022/11/19 08:51:37;;;;;;;7.80;6.40;;;-0.10;99.90;;;;;;5095911;28;20450;-66
2022/11/19 08:54:05;;;;;;;8.33;6.20;;;0.00;99.90;;;;;;5097613;28;20779;-67
2022/11/19 08:56:32;;;;;;;10.73;6.70;;;0.10;99.90;;;;;;5099621;28;20450;-67
2022/11/19 08:58:59;;;;;;;9.03;6.70;;;0.20;99.90;;;;;;5099142;28;20507;-67
2022/11/19 09:01:26;;;;;;;7.77;5.40;;;0.30;99.90;;;;;;5102542;28;20453;-67
2022/11/19 09:03:53;;;;;;;6.50;5.07;;;0.30;99.90;;;;;;5102543;28;20917;-68
2022/11/19 09:06:20;;;;;;;7.13;5.83;;;0.40;99.90;;;;;;5101117;28;20480;-67
2022/11/19 09:08:48;;;;;;;6.30;5.50;;;0.30;99.90;;;;;;5099478;28;20457;-68
2022/11/19 09:11:17;;;;;;;7.13;5.77;;;0.20;99.90;;;;;;5098820;28;20516;-68
2022/11/19 09:13:44;;;;;;;6.70;5.93;;;0.20;99.90;;;;;;5098666;28;20480;-67
2022/11/19 09:16:12;;;;;;;8.60;6.63;;;0.20;99.90;;;;;;5098179;28;20457;-67
2022/11/19 09:18:40;;;;;;;6.10;5.13;;;0.20;99.90;;;;;;5098217;28;20526;-67
2022/11/19 09:21:09;;;;;;;9.70;6.27;;;0.20;99.90;;;;;;5098795;28;20503;-68
2022/11/19 09:23:36;;;;;;;7.10;5.73;;;0.30;99.90;;;;;;5098321;28;20938;-70
2022/11/19 09:26:06;;;;;;;7.40;5.50;;;0.30;99.90;;;;;;5098999;28;20549;-68
2022/11/19 09:28:33;;;;;;;6.90;5.10;;;0.30;99.90;;;;;;5103121;28;20502;-68
2022/11/19 09:31:05;;;;;;;8.93;5.90;;;0.30;99.90;;;;;;5102402;28;20850;-69
2022/11/19 09:33:34;;;;;;;6.50;5.60;;;0.20;99.90;;;;;;5103569;28;20450;-68
2022/11/19 09:36:01;;;;;;;5.93;5.20;;;0.30;99.90;;;;;;5105056;28;20453;-68
2022/11/19 09:38:30;;;;;;;7.43;5.70;;;0.30;99.90;;;;;;5104968;28;20457;-68
2022/11/19 09:41:01;;;;;;;6.87;4.80;;;0.30;99.90;;;;;;5105024;28;20481;-69
2022/11/19 09:43:40;;;;;;;6.80;5.13;;;0.30;99.90;;;;;;5104542;28;20882;-68
2022/11/19 09:46:15;;;;;;;6.40;5.30;;;0.40;99.90;;;;;;5103969;28;20441;-67
2022/11/19 09:48:44;;;;;;;5.70;4.27;;;0.50;99.90;;;;;;5101962;28;20440;-68
2022/11/19 09:51:14;;;;;;;7.70;5.80;;;0.50;99.90;;;;;;5101487;28;20517;-68
2022/11/19 09:53:45;;;;;;;10.13;5.47;;;0.60;99.90;;;;;;5101222;28;20437;-68
2022/11/19 09:56:17;;;;;;;5.53;4.37;;;0.60;99.90;;;;;;5101952;28;20476;-67
2022/11/19 09:58:46;;;;;;;6.70;5.30;;;0.70;99.90;;;;;;5098779;28;20433;-69
2022/11/19 10:01:15;;;;;;;5.10;3.90;;;0.80;99.90;;;;;;5098174;28;20452;-68
2022/11/19 10:03:47;;;;;;;6.13;4.57;;;0.80;99.90;;;;;;5098901;28;20928;-68
2022/11/19 10:06:27;;;;;;;5.10;4.33;;;0.80;99.90;;;;;;5098486;28;20437;-66
2022/11/19 10:09:14;;;;;;;5.20;4.53;;;0.90;99.90;;;;;;5098449;28;20479;-68
2022/11/19 10:11:53;;;;;;;6.30;3.97;;;0.90;99.90;;;;;;5098450;28;20438;-67
2022/11/19 10:14:44;;;;;;;4.70;3.50;;;0.90;99.90;;;;;;5100071;28;20902;-68
2022/11/19 10:17:26;;;;;;;5.50;4.33;;;0.90;99.90;;;;;;5101100;28;20457;-67
2022/11/19 10:20:08;;;;;;;4.87;4.00;;;1.00;99.90;;;;;;5099852;28;20461;-67
2022/11/19 10:22:41;;;;;;;5.07;4.30;;;1.00;99.90;;;;;;5099762;28;20434;-67
2022/11/19 10:25:17;;;;;;;6.63;4.17;;;1.00;99.90;;;;;;5100453;28;20485;-67
2022/11/19 10:27:48;;;;;;;5.50;4.20;;;1.10;99.90;;;;;;5099788;28;20471;-67
2022/11/19 10:30:19;;;;;;;4.50;3.70;;;1.10;99.90;;;;;;5100911;28;20433;-66
2022/11/19 10:32:55;;;;;;;4.67;4.17;;;1.20;99.90;;;;;;5102733;28;20441;-67
2022/11/19 10:35:27;;;;;;;5.33;4.20;;;1.20;99.90;;;;;;5102242;28;20780;-67
2022/11/19 10:37:58;;;;;;;5.47;3.93;;;1.30;99.90;;;;;;5105106;28;20465;-68
2022/11/19 10:40:28;;;;;;;5.17;4.03;;;1.30;99.90;;;;;;5106506;28;20465;-67
2022/11/19 10:43:04;;;;;;;4.53;3.83;;;1.40;99.90;;;;;;5105495;28;20452;-68
2022/11/19 10:45:33;;;;;;;4.47;3.90;;;1.50;99.90;;;;;;5104259;28;20441;-67
2022/11/19 10:48:07;;;;;;;5.60;4.17;;;1.60;99.90;;;;;;5105193;28;20513;-67
2022/11/19 10:50:57;;;;;;;5.00;3.90;;;1.60;99.90;;;;;;5107038;28;20482;-67
2022/11/19 10:53:28;;;;;;;5.33;3.80;;;1.70;99.90;;;;;;5105163;28;20438;-67
2022/11/19 10:55:57;;;;;;;6.23;4.00;;;1.70;99.90;;;;;;5105434;28;20446;-67
2022/11/19 10:58:28;;;;;;;4.30;3.43;;;1.80;99.90;;;;;;5105495;28;20492;-68
2022/11/19 11:00:58;;;;;;;3.97;3.60;;;1.90;99.90;;;;;;5105003;28;20503;-68
2022/11/19 11:03:30;;;;;;;3.77;3.40;;;1.90;99.90;;;;;;5104360;28;20437;-68
2022/11/19 11:06:00;;;;;;;7.00;4.27;;;1.90;99.90;;;;;;5103659;28;20433;-68
2022/11/19 11:08:28;;;;;;;5.30;4.50;;;1.90;99.90;;;;;;5102700;28;20468;-68
2022/11/19 11:10:55;;;;;;;4.37;3.70;;;1.90;99.90;;;;;;5103478;28;20453;-68
2022/11/19 11:16:18;;;;;;;6.53;5.10;;;1.80;99.90;;;;;;5104175;28;20433;-67
2022/11/19 11:18:46;;;;;;;7.27;4.63;;;1.70;99.90;;;;;;5105578;28;20442;-68
2022/11/19 11:21:29;;;;;;;5.33;4.80;;;1.70;99.90;;;;;;5104691;28;20509;-68
2022/11/19 11:23:56;;;;;;;6.10;4.53;;;1.70;99.90;;;;;;5103790;28;20434;-67
2022/11/19 11:26:25;;;;;;;5.00;4.20;;;1.70;99.90;;;;;;5102366;28;20493;-67
2022/11/19 11:28:58;;;;;;;5.10;4.37;;;1.80;99.90;;;;;;5101539;28;20452;-68
2022/11/19 11:31:33;;;;;;;7.10;4.97;;;1.80;99.90;;;;;;5102192;28;20498;-68
2022/11/19 11:34:01;;;;;;;8.43;5.00;;;1.80;99.90;;;;;;5101758;28;20469;-67
2022/11/19 11:36:31;;;;;;;7.07;4.67;;;1.80;99.90;;;;;;5101328;28;20522;-68
2022/11/19 11:39:00;;;;;;;9.33;6.33;;;1.90;99.90;;;;;;5101190;28;20463;-67
2022/11/19 11:41:38;;;;;;;7.93;5.20;;;2.00;99.90;;;;;;5100356;28;20481;-68
2022/11/19 11:44:07;;;;;;;8.27;6.10;;;2.10;99.90;;;;;;5101993;28;20442;-68
2022/11/19 11:46:46;;;;;;;6.20;4.83;;;2.30;99.90;;;;;;5101642;28;20489;-68
2022/11/19 11:49:24;;;;;;;7.87;5.53;;;2.40;99.90;;;;;;5101394;28;20441;-68
2022/11/19 11:52:01;;;;;;;7.10;5.27;;;2.90;99.90;;;;;;5102955;28;20441;-68
2022/11/19 11:54:28;;;;;;;7.87;5.20;;;3.50;99.90;;;;;;5101678;28;20475;-68
2022/11/19 11:57:13;;;;;;;5.23;4.63;;;4.00;99.90;;;;;;5101129;28;20493;-68
2022/11/19 11:59:40;;;;;;;8.97;5.57;;;4.50;99.90;;;;;;5100775;28;20461;-67
2022/11/19 12:02:20;;;;;;;6.10;4.50;;;4.80;99.90;;;;;;5100714;28;20478;-68
2022/11/19 12:04:48;;;;;;;7.63;6.00;;;5.10;99.90;;;;;;5101025;28;20451;-68
2022/11/19 12:07:36;;;;;;;8.03;5.07;;;5.60;99.90;;;;;;5100532;28;20453;-68
2022/11/19 12:10:15;;;;;;;7.43;5.80;;;5.90;99.90;;;;;;5101429;28;20958;-68
2022/11/19 12:12:49;;;;;;;7.97;5.20;;;5.40;99.90;;;;;;5101133;28;20477;-68
2022/11/19 12:15:23;;;;;;;11.50;4.97;;;4.90;99.90;;;;;;5101226;28;20442;-68
2022/11/19 12:18:21;;;;;;;6.27;5.23;;;4.40;99.90;;;;;;5101355;28;20442;-67
2022/11/19 12:20:57;;;;;;;8.90;5.70;;;4.10;99.90;;;;;;5102700;28;20496;-66
2022/11/19 12:23:36;;;;;;;9.90;6.30;;;3.90;99.90;;;;;;5103640;28;20444;-66
2022/11/19 12:26:14;;;;;;;8.80;5.93;;;3.60;99.90;;;;;;5103736;28;20512;-67
2022/11/19 12:28:58;;;;;;;7.00;5.70;;;3.30;99.90;;;;;;5102558;28;20452;-67
2022/11/19 12:31:37;;;;;;;7.03;5.47;;;3.20;99.90;;;;;;5103080;28;20798;-67
2022/11/19 12:34:36;;;;;;;7.17;5.83;;;3.00;99.90;;;;;;5102175;28;20502;-66
2022/11/19 12:37:26;;;;;;;6.90;5.57;;;3.00;99.90;;;;;;5101159;28;20453;-67
2022/11/19 12:39:58;;;;;;;7.10;5.70;;;3.20;99.90;;;;;;5102067;28;20458;-66
2022/11/19 12:42:43;;;;;;;8.10;5.33;;;3.20;99.90;;;;;;5102018;28;20462;-66
2022/11/19 12:45:20;;;;;;;7.00;5.37;;;3.10;99.90;;;;;;5102809;28;20433;-66
2022/11/19 12:48:06;;;;;;;7.90;6.10;;;2.90;99.90;;;;;;5103231;28;20470;-66
2022/11/19 12:50:45;;;;;;;8.07;6.87;;;2.70;99.90;;;;;;5103907;28;20449;-66
2022/11/19 12:53:24;;;;;;;8.10;6.60;;;2.60;99.90;;;;;;5103815;28;20433;-67
2022/11/19 12:56:02;;;;;;;7.47;5.33;;;2.60;99.90;;;;;;5103870;28;20503;-67
2022/11/19 12:58:40;;;;;;;7.60;5.83;;;2.50;99.90;;;;;;5103128;28;20437;-66
2022/11/19 13:01:12;;;;;;;7.40;6.03;;;2.50;99.90;;;;;;5101857;28;20496;-66
2022/11/19 13:03:52;;;;;;;8.37;6.00;;;2.50;99.90;;;;;;5103755;28;20442;-65
2022/11/19 13:06:25;;;;;;;9.90;6.87;;;2.50;99.90;;;;;;5103991;28;20437;-67
2022/11/19 13:08:58;;;;;;;8.87;6.33;;;2.50;99.90;;;;;;5103115;28;20556;-67
2022/11/19 13:11:35;;;;;;;10.43;6.80;;;2.50;99.90;;;;;;5102290;28;20909;-67
2022/11/19 13:14:07;;;;;;;9.70;6.80;;;2.50;99.90;;;;;;5102228;28;20552;-66
2022/11/19 13:16:35;;;;;;;9.50;6.87;;;2.50;99.90;;;;;;5102925;28;20438;-67
2022/11/19 13:19:15;;;;;;;8.00;6.23;;;2.50;99.90;;;;;;5102948;28;20483;-67
2022/11/19 13:21:49;;;;;;;10.20;6.70;;;2.50;99.90;;;;;;5104347;28;20462;-67
2022/11/19 13:24:28;;;;;;;8.60;7.63;;;2.40;99.90;;;;;;5103198;28;20473;-67